Time;durP1;ratioP1;P1;durP2;ratioP2;P2;SDS_P1;SDS_P2;PMS_P1;PMS_P2;Temp;Humidity;BMP_temperature;BMP_pressure;BME280_temperature;BME280_humidity;BME280_pressure;Samples;Min_cycle;Max_cycle;Signal;HPM_P1;HPM_P2
2023/05/24 00:00:11;;;;;;;9.27;4.20;;;;;;;18.02;49.14;97754.66;5011830;28;20628;-71
2023/05/24 00:02:40;;;;;;;5.27;3.63;;;;;;;17.96;49.16;97753.50;5010114;28;20192;-68
2023/05/24 00:05:09;;;;;;;5.27;3.73;;;;;;;17.95;48.80;97742.09;5013989;28;20497;-70
2023/05/24 00:07:35;;;;;;;6.57;4.10;;;;;;;17.93;48.72;97754.72;5011904;28;21066;-70
2023/05/24 00:10:03;;;;;;;7.03;3.20;;;;;;;17.91;48.88;97746.13;4999883;28;20778;-70
2023/05/24 00:12:28;;;;;;;7.20;3.80;;;;;;;17.89;49.29;97747.31;5007236;28;20439;-69
2023/05/24 00:14:53;;;;;;;4.17;3.17;;;;;;;17.91;49.17;97750.63;5015666;28;20514;-69
2023/05/24 00:17:19;;;;;;;6.07;3.83;;;;;;;17.89;49.51;97748.16;5017787;28;20238;-69
2023/05/24 00:19:44;;;;;;;8.67;3.70;;;;;;;17.85;49.45;97741.56;5008238;28;20263;-69
2023/05/24 00:22:12;;;;;;;6.33;4.00;;;;;;;17.81;49.60;97741.13;5009988;28;20283;-69
2023/05/24 00:24:38;;;;;;;4.77;3.40;;;;;;;17.85;49.62;97738.94;5006865;28;20203;-69
2023/05/24 00:27:04;;;;;;;5.40;3.67;;;;;;;17.81;49.47;97735.00;5007865;28;20463;-69
2023/05/24 00:29:30;;;;;;;5.57;3.77;;;;;;;17.79;49.59;97739.66;5007913;28;20184;-68
2023/05/24 00:31:56;;;;;;;4.80;3.93;;;;;;;17.77;49.81;97733.72;5010880;28;20504;-70
2023/05/24 00:34:21;;;;;;;4.83;3.57;;;;;;;17.77;49.74;97733.72;5008238;28;20519;-70
2023/05/24 00:36:47;;;;;;;4.20;3.70;;;;;;;17.79;49.73;97727.22;5006816;28;20781;-69
2023/05/24 00:39:12;;;;;;;6.60;3.40;;;;;;;17.76;49.80;97724.13;5013134;28;20191;-69
2023/05/24 00:41:38;;;;;;;5.20;3.80;;;;;;;17.78;50.02;97730.06;5010425;28;20196;-69
2023/05/24 00:44:03;;;;;;;4.03;3.60;;;;;;;17.81;50.02;97725.22;5011563;28;20191;-69
2023/05/24 00:46:32;;;;;;;5.73;3.63;;;;;;;17.79;49.99;97727.22;5012576;28;20213;-70
2023/05/24 00:48:59;;;;;;;5.47;4.03;;;;;;;17.77;49.78;97718.66;5006877;28;20574;-70
2023/05/24 00:51:26;;;;;;;6.87;3.83;;;;;;;17.76;49.99;97726.78;5007570;28;20522;-69
2023/05/24 00:53:51;;;;;;;5.10;4.20;;;;;;;17.76;49.91;97722.31;5009047;28;20442;-69
2023/05/24 00:56:17;;;;;;;6.47;3.77;;;;;;;17.76;49.82;97726.78;5023760;28;20446;-70
2023/05/24 00:58:43;;;;;;;8.50;3.60;;;;;;;17.74;50.10;97729.59;5008829;28;20327;-68
2023/05/24 01:01:09;;;;;;;4.80;3.90;;;;;;;17.78;49.85;97728.25;5012107;28;20184;-69
2023/05/24 01:03:34;;;;;;;4.20;3.23;;;;;;;17.84;49.85;97724.03;5011794;28;21072;-69
2023/05/24 01:06:02;;;;;;;6.87;3.97;;;;;;;17.85;49.48;97730.97;5012070;28;20204;-70
2023/05/24 01:08:41;;;;;;;5.77;3.47;;;;;;;17.86;49.47;97732.63;5010047;28;20188;-70
2023/05/24 01:11:12;;;;;;;10.40;3.67;;;;;;;17.88;49.65;97725.31;5009278;28;20487;-69
2023/05/24 01:13:43;;;;;;;4.53;3.80;;;;;;;17.89;49.30;97728.75;5017663;28;20434;-68
2023/05/24 01:16:20;;;;;;;6.77;3.83;;;;;;;17.85;49.24;97727.47;5013384;28;20446;-69
2023/05/24 01:18:54;;;;;;;10.57;3.77;;;;;;;17.82;49.17;97720.72;5014574;28;20492;-69
2023/05/24 01:21:47;;;;;;;8.03;3.73;;;;;;;17.83;49.19;97722.38;5009054;28;20534;-70
2023/05/24 01:24:29;;;;;;;4.30;3.33;;;;;;;17.82;49.15;97723.38;5027168;28;20438;-70
2023/05/24 01:26:58;;;;;;;6.60;3.80;;;;;;;17.83;49.12;97726.88;5013777;28;20830;-69
2023/05/24 01:29:25;;;;;;;6.47;3.83;;;;;;;17.80;49.12;97722.75;5016287;28;20493;-69
2023/05/24 01:31:50;;;;;;;6.00;3.47;;;;;;;17.82;49.02;97720.72;5013349;28;20538;-68
2023/05/24 01:34:16;;;;;;;8.77;3.50;;;;;;;17.84;48.84;97723.19;5010138;28;20995;-69
2023/05/24 01:36:41;;;;;;;5.93;3.20;;;;;;;17.75;48.98;97722.50;5014214;28;20211;-69
2023/05/24 01:39:07;;;;;;;5.50;3.70;;;;;;;17.70;48.87;97716.91;5009420;28;20204;-69
2023/05/24 01:41:42;;;;;;;7.70;4.00;;;;;;;17.62;49.01;97720.50;5010583;28;20215;-69
2023/05/24 01:44:26;;;;;;;6.23;3.83;;;;;;;17.58;48.83;97719.22;5003398;28;20195;-69
2023/05/24 01:47:01;;;;;;;5.80;3.83;;;;;;;17.60;49.11;97723.34;5008352;28;20471;-69
2023/05/24 01:49:30;;;;;;;9.37;4.20;;;;;;;17.55;49.05;97724.91;5009391;28;20442;-68
2023/05/24 01:52:05;;;;;;;8.07;3.70;;;;;;;17.54;48.99;97724.06;5008293;28;20515;-69
2023/05/24 01:54:32;;;;;;;6.03;3.70;;;;;;;17.48;48.84;97728.25;5024672;28;20430;-68
2023/05/24 01:56:58;;;;;;;4.77;3.37;;;;;;;17.50;48.79;97728.09;5011234;28;20459;-69
2023/05/24 01:59:25;;;;;;;7.90;4.23;;;;;;;17.52;48.56;97726.06;4993468;28;20442;-69
2023/05/24 02:01:50;;;;;;;7.00;3.87;;;;;;;17.53;48.34;97725.06;5013777;28;20184;-69
2023/05/24 02:04:16;;;;;;;7.33;3.60;;;;;;;17.46;48.38;97726.81;5009819;28;20462;-69
2023/05/24 02:06:42;;;;;;;11.63;3.70;;;;;;;17.43;48.08;97721.88;5017392;28;20219;-68
2023/05/24 02:09:07;;;;;;;9.20;4.30;;;;;;;17.43;48.32;97729.81;5018846;28;20483;-68
2023/05/24 02:11:33;;;;;;;7.53;3.47;;;;;;;17.45;48.00;97722.53;5009210;28;20292;-68
2023/05/24 02:13:58;;;;;;;5.87;3.77;;;;;;;17.43;47.58;97727.19;5009455;28;20191;-68
2023/05/24 02:16:25;;;;;;;9.47;4.00;;;;;;;17.41;47.41;97731.81;5013703;28;20292;-69
2023/05/24 02:18:51;;;;;;;12.77;4.60;;;;;;;17.39;47.66;97725.91;5015212;28;20223;-69
2023/05/24 02:21:17;;;;;;;6.17;3.93;;;;;;;17.37;47.52;97727.91;5009639;28;20436;-69
2023/05/24 02:23:42;;;;;;;6.87;4.03;;;;;;;17.35;47.33;97730.72;5009122;28;20192;-68
2023/05/24 02:26:10;;;;;;;8.73;4.03;;;;;;;17.39;47.32;97733.88;5019827;28;20650;-68
2023/05/24 02:28:36;;;;;;;6.77;3.83;;;;;;;17.28;46.68;97733.28;5009730;28;20283;-68
2023/05/24 02:31:01;;;;;;;11.43;3.90;;;;;;;17.34;47.01;97735.22;5008575;28;20443;-69
2023/05/24 02:33:28;;;;;;;7.17;3.80;;;;;;;17.32;46.93;97737.22;5018434;28;20478;-68
2023/05/24 02:35:55;;;;;;;9.27;4.00;;;;;;;17.29;47.01;97737.59;5008565;28;20210;-69
2023/05/24 02:38:20;;;;;;;11.50;4.10;;;;;;;17.26;47.28;97732.69;5020550;28;20449;-68
2023/05/24 02:40:46;;;;;;;10.83;3.73;;;;;;;17.33;47.22;97732.75;5008370;28;20447;-69
2023/05/24 02:43:11;;;;;;;10.20;4.17;;;;;;;17.31;46.91;97732.94;5023699;28;20181;-69
2023/05/24 02:45:37;;;;;;;8.80;4.23;;;;;;;17.28;46.72;97733.28;5010372;28;20199;-68
2023/05/24 02:48:02;;;;;;;10.13;3.60;;;;;;;17.26;47.02;97730.03;5023720;28;20291;-68
2023/05/24 02:50:27;;;;;;;9.93;4.00;;;;;;;17.26;47.06;97726.53;5013444;28;20191;-69
2023/05/24 02:52:53;;;;;;;10.67;4.37;;;;;;;17.20;47.03;97728.09;5015211;28;20232;-69
2023/05/24 02:55:18;;;;;;;12.00;4.20;;;;;;;17.09;46.95;97736.50;5017359;28;20234;-69
2023/05/24 02:57:44;;;;;;;19.07;4.90;;;;;;;17.07;47.11;97730.53;5015244;28;20208;-69
2023/05/24 03:00:10;;;;;;;13.57;5.23;;;;;;;16.98;47.74;97721.84;5012179;28;20211;-69
2023/05/24 03:02:39;;;;;;;9.53;4.00;;;;;;;16.95;47.53;97731.00;5013015;28;20196;-69
2023/05/24 03:05:08;;;;;;;9.03;4.17;;;;;;;16.79;47.72;97712.56;5017127;28;20434;-69
2023/05/24 03:07:34;;;;;;;10.37;4.60;;;;;;;16.63;48.13;97714.38;5012262;28;21068;-70
2023/05/24 03:09:59;;;;;;;8.93;4.20;;;;;;;16.65;48.26;97712.34;5017718;28;20431;-69
2023/05/24 03:12:24;;;;;;;12.43;3.87;;;;;;;16.60;48.59;97725.31;5022186;28;20203;-70
2023/05/24 03:14:50;;;;;;;12.30;5.30;;;;;;;16.60;48.45;97727.97;5017839;28;20661;-69
2023/05/24 03:17:15;;;;;;;9.53;4.17;;;;;;;16.55;48.63;97730.31;5021697;28;20214;-70
2023/05/24 03:19:41;;;;;;;9.50;4.30;;;;;;;16.56;48.83;97726.66;5023576;28;20195;-69
2023/05/24 03:22:06;;;;;;;12.17;4.17;;;;;;;16.56;48.97;97731.97;5008509;28;20219;-68
2023/05/24 03:24:32;;;;;;;11.93;4.20;;;;;;;16.62;48.96;97728.63;5012038;28;20196;-68
2023/05/24 03:26:57;;;;;;;10.23;4.07;;;;;;;16.60;48.96;97727.97;5018514;28;20382;-69
2023/05/24 03:29:23;;;;;;;11.57;4.60;;;;;;;16.59;48.91;97728.97;5016662;28;20201;-68
2023/05/24 03:31:48;;;;;;;9.93;4.50;;;;;;;16.56;48.88;97734.59;5009644;28;20737;-70
2023/05/24 03:34:14;;;;;;;15.63;4.37;;;;;;;16.50;48.92;97732.69;5053499;28;20215;-69
2023/05/24 03:36:40;;;;;;;10.03;4.57;;;;;;;16.47;48.95;97728.53;5014936;28;20208;-68
2023/05/24 03:39:06;;;;;;;10.67;4.37;;;;;;;16.49;49.32;97731.03;5016342;28;20196;-68
2023/05/24 03:41:32;;;;;;;13.03;4.70;;;;;;;16.52;49.25;97735.94;5009244;28;20450;-70
2023/05/24 03:43:58;;;;;;;11.77;4.60;;;;;;;16.56;49.20;97731.97;5013553;28;20203;-68
2023/05/24 03:46:23;;;;;;;13.90;4.30;;;;;;;16.54;49.21;97728.66;5014670;28;20224;-71
2023/05/24 03:48:49;;;;;;;11.47;4.53;;;;;;;16.57;49.25;97739.69;5006642;28;20831;-70
2023/05/24 03:51:14;;;;;;;9.40;4.17;;;;;;;16.56;49.00;97738.09;5017779;28;20207;-70
2023/05/24 03:53:40;;;;;;;12.83;4.67;;;;;;;16.57;49.06;97741.53;5014249;28;20195;-69
2023/05/24 03:56:05;;;;;;;10.10;4.90;;;;;;;16.54;48.73;97742.72;5017693;28;20189;-70
2023/05/24 03:58:31;;;;;;;9.37;4.40;;;;;;;16.57;49.00;97738.91;5012636;28;20679;-68
2023/05/24 04:00:56;;;;;;;10.30;4.97;;;;;;;16.59;48.92;97735.06;5017408;28;20214;-70
2023/05/24 04:03:21;;;;;;;12.73;4.30;;;;;;;16.59;48.92;97732.41;5008060;28;20192;-69
2023/05/24 04:05:47;;;;;;;10.13;4.80;;;;;;;16.55;49.23;97730.31;5011253;28;20723;-69
2023/05/24 04:08:13;;;;;;;9.90;4.63;;;;;;;16.51;48.99;97729.00;5012607;28;20252;-69
2023/05/24 04:10:40;;;;;;;12.20;4.80;;;;;;;16.53;48.98;97727.00;5014708;28;20275;-69
2023/05/24 04:13:05;;;;;;;11.20;4.83;;;;;;;16.57;48.93;97725.66;5013028;28;20430;-69
2023/05/24 04:15:31;;;;;;;10.73;4.70;;;;;;;16.51;48.96;97716.63;5016911;28;20431;-68
2023/05/24 04:17:57;;;;;;;10.77;4.93;;;;;;;16.46;49.29;97720.81;5015100;28;20204;-69
2023/05/24 04:20:24;;;;;;;12.47;4.60;;;;;;;16.46;49.37;97720.81;5014991;28;20964;-69
2023/05/24 04:22:50;;;;;;;9.27;4.60;;;;;;;16.46;48.96;97718.97;5010052;28;20196;-69
2023/05/24 04:25:15;;;;;;;12.47;4.47;;;;;;;16.46;49.19;97713.66;5012051;28;20451;-70
2023/05/24 04:27:41;;;;;;;12.10;5.87;;;;;;;16.43;49.30;97720.16;5006757;28;20467;-69
2023/05/24 04:30:08;;;;;;;8.50;5.17;;;;;;;16.51;49.26;97710.50;5016492;28;20191;-70
2023/05/24 04:32:33;;;;;;;10.40;5.07;;;;;;;16.50;48.98;97719.44;5014580;28;20200;-69
2023/05/24 04:35:01;;;;;;;11.27;4.60;;;;;;;16.50;49.06;97727.38;5012845;28;20489;-69
2023/05/24 04:37:28;;;;;;;9.80;5.00;;;;;;;16.51;49.25;97729.00;5029370;28;20207;-70
2023/05/24 04:39:54;;;;;;;18.13;4.80;;;;;;;16.43;49.14;97733.38;5019101;28;20443;-68
2023/05/24 04:42:20;;;;;;;14.10;4.80;;;;;;;16.40;49.22;97735.56;4988881;28;20445;-69
2023/05/24 04:44:45;;;;;;;12.50;4.80;;;;;;;16.41;49.30;97731.91;5021004;28;20442;-72
2023/05/24 04:47:11;;;;;;;10.60;4.60;;;;;;;16.44;49.32;97734.22;5014382;28;20247;-69
2023/05/24 04:49:38;;;;;;;10.63;5.63;;;;;;;16.45;49.30;97732.38;5012702;28;20595;-70
2023/05/24 04:52:05;;;;;;;11.80;5.00;;;;;;;16.50;49.26;97748.56;5049600;28;20276;-70
2023/05/24 04:54:30;;;;;;;11.87;4.87;;;;;;;16.51;49.20;97744.88;5018799;28;20430;-69
2023/05/24 04:56:56;;;;;;;10.77;4.50;;;;;;;16.53;49.50;97750.81;5016913;28;20446;-70
2023/05/24 04:59:21;;;;;;;10.50;5.00;;;;;;;16.50;49.17;97749.38;5015863;28;20613;-69
2023/05/24 05:01:47;;;;;;;9.70;4.50;;;;;;;16.48;49.35;97748.72;5020626;28;20191;-69
2023/05/24 05:04:12;;;;;;;10.47;4.27;;;;;;;16.51;49.42;97758.94;5017280;28;20672;-69
2023/05/24 05:06:39;;;;;;;9.97;4.93;;;;;;;16.50;49.47;97753.84;5018709;28;20219;-69
2023/05/24 05:09:09;;;;;;;9.33;4.40;;;;;;;16.47;49.21;97759.47;5011445;28;20600;-69
2023/05/24 05:11:37;;;;;;;16.10;5.00;;;;;;;16.41;49.36;97761.81;5018783;28;20461;-69
2023/05/24 05:14:03;;;;;;;12.13;4.90;;;;;;;16.37;49.55;97762.34;5019650;28;20435;-71
2023/05/24 05:16:29;;;;;;;9.50;4.40;;;;;;;16.34;49.42;97760.06;5013749;28;20462;-73
2023/05/24 05:18:54;;;;;;;13.23;4.33;;;;;;;16.35;49.76;97757.25;5011717;28;20196;-71
2023/05/24 05:21:20;;;;;;;9.07;4.07;;;;;;;16.34;49.59;97763.53;5013332;28;20368;-69
2023/05/24 05:23:45;;;;;;;10.30;4.90;;;;;;;16.31;49.74;97761.22;5004778;28;20188;-70
2023/05/24 05:26:11;;;;;;;10.30;3.90;;;;;;;16.35;49.79;97762.53;5019406;28;20731;-70
2023/05/24 05:28:36;;;;;;;8.73;4.23;;;;;;;16.39;50.32;97761.16;5010368;28;20275;-68
2023/05/24 05:31:02;;;;;;;11.00;4.53;;;;;;;16.43;50.78;97764.31;5010053;28;20668;-70
2023/05/24 05:33:30;;;;;;;9.50;4.67;;;;;;;16.47;49.60;97760.28;5014616;28;20238;-71
2023/05/24 05:35:55;;;;;;;9.90;4.20;;;;;;;16.46;49.27;97763.13;5009731;28;20192;-70
2023/05/24 05:38:21;;;;;;;9.00;4.27;;;;;;;16.41;49.08;97756.53;5010681;28;20826;-71
2023/05/24 05:40:46;;;;;;;8.20;4.43;;;;;;;16.40;49.06;97759.38;5009956;28;20184;-71
2023/05/24 05:43:12;;;;;;;14.13;4.47;;;;;;;16.39;49.18;97755.88;5047622;28;20242;-70
2023/05/24 05:45:37;;;;;;;12.80;4.00;;;;;;;16.46;49.66;97768.41;5019102;28;20267;-70
2023/05/24 05:48:03;;;;;;;10.77;4.83;;;;;;;16.45;49.35;97759.63;5015975;28;20215;-70
2023/05/24 05:50:28;;;;;;;9.20;4.77;;;;;;;16.49;48.77;97757.50;5030937;28;20266;-70
2023/05/24 05:52:53;;;;;;;11.47;5.27;;;;;;;16.50;49.08;97756.50;5013502;28;20195;-70
2023/05/24 05:55:19;;;;;;;12.27;4.90;;;;;;;16.50;49.17;97761.78;5023521;28;20196;-70
2023/05/24 05:57:44;;;;;;;11.63;4.50;;;;;;;16.52;48.98;97762.41;5016608;28;20277;-70
2023/05/24 06:00:10;;;;;;;13.70;5.03;;;;;;;16.48;49.09;97756.66;5018898;28;20196;-70
2023/05/24 06:02:36;;;;;;;16.50;4.73;;;;;;;16.49;49.01;97760.13;5018720;28;20200;-70
2023/05/24 06:05:02;;;;;;;7.00;4.60;;;;;;;16.50;48.86;97759.94;5014973;28;20472;-69
2023/05/24 06:07:27;;;;;;;9.77;4.80;;;;;;;16.55;48.84;97762.06;5010878;28;20220;-70
2023/05/24 06:09:53;;;;;;;11.87;5.03;;;;;;;16.52;48.57;97757.94;5013922;28;20198;-70
2023/05/24 06:12:18;;;;;;;14.07;4.60;;;;;;;16.49;47.79;97754.84;5008828;28;20199;-70
2023/05/24 06:14:43;;;;;;;9.57;4.23;;;;;;;16.49;48.06;97754.84;5012374;28;20196;-69
2023/05/24 06:17:10;;;;;;;12.13;4.60;;;;;;;16.56;48.35;97758.41;5013765;28;20235;-70
2023/05/24 06:19:35;;;;;;;12.47;5.10;;;;;;;16.59;47.40;97755.41;5014118;28;20243;-69
2023/05/24 06:22:00;;;;;;;8.23;4.43;;;;;;;16.64;47.37;97755.69;5024890;28;20920;-69
2023/05/24 06:24:27;;;;;;;28.03;5.53;;;;;;;16.66;47.55;97753.69;5012329;28;20293;-70
2023/05/24 06:26:53;;;;;;;12.27;4.23;;;;;;;16.67;47.82;97755.34;5009219;28;20224;-70
2023/05/24 06:29:19;;;;;;;10.80;5.03;;;;;;;16.65;47.26;97757.34;5010439;28;20494;-69
2023/05/24 06:31:46;;;;;;;9.03;4.20;;;;;;;16.69;47.12;97753.34;5009524;28;20207;-69
2023/05/24 06:34:19;;;;;;;13.20;4.17;;;;;;;16.65;47.10;97754.69;5010093;28;20427;-69
2023/05/24 06:36:47;;;;;;;12.10;5.07;;;;;;;16.70;47.27;97754.16;5015113;28;20470;-69
2023/05/24 06:39:13;;;;;;;11.10;5.13;;;;;;;16.72;47.53;97752.16;5017254;28;20493;-70
2023/05/24 06:41:39;;;;;;;12.67;4.40;;;;;;;16.71;46.99;97761.09;5011105;28;20456;-68
2023/05/24 06:44:05;;;;;;;11.97;4.43;;;;;;;16.74;46.81;97771.34;5011602;28;20466;-69
2023/05/24 06:46:31;;;;;;;15.93;5.53;;;;;;;16.71;46.90;97767.22;4999156;28;20255;-69
2023/05/24 06:48:56;;;;;;;15.33;4.60;;;;;;;16.75;47.32;97767.69;4999963;28;20192;-69
2023/05/24 06:51:22;;;;;;;9.67;4.67;;;;;;;16.79;47.18;97766.34;5015869;28;20196;-69
2023/05/24 06:53:47;;;;;;;13.93;5.20;;;;;;;16.79;47.52;97768.16;4992002;28;20189;-68
2023/05/24 06:56:13;;;;;;;18.53;4.90;;;;;;;16.82;47.81;97773.09;4999636;28;20188;-68
2023/05/24 06:58:39;;;;;;;10.63;4.60;;;;;;;16.81;47.33;97766.16;5012779;28;20185;-69
2023/05/24 07:01:04;;;;;;;13.23;4.70;;;;;;;16.75;47.42;97773.00;5014906;28;20484;-70
2023/05/24 07:03:30;;;;;;;17.80;5.30;;;;;;;16.70;46.97;97776.16;5016812;28;20668;-69
2023/05/24 07:05:56;;;;;;;10.60;4.90;;;;;;;16.69;47.09;97773.72;5013364;28;20196;-69
2023/05/24 07:08:23;;;;;;;10.50;4.70;;;;;;;16.62;47.18;97781.53;5021469;28;20471;-69
2023/05/24 07:10:48;;;;;;;9.07;4.63;;;;;;;16.63;47.27;97785.84;5011877;28;20538;-68
2023/05/24 07:13:14;;;;;;;7.17;4.53;;;;;;;16.59;47.44;97782.69;5018228;28;20450;-68
2023/05/24 07:15:42;;;;;;;8.80;5.00;;;;;;;16.60;47.70;97791.47;5020252;28;20184;-69
2023/05/24 07:18:07;;;;;;;17.03;4.70;;;;;;;16.67;47.81;97792.41;5015329;28;20297;-69
2023/05/24 07:20:33;;;;;;;10.13;4.53;;;;;;;16.66;47.79;97806.63;5015815;28;20522;-68
2023/05/24 07:23:00;;;;;;;13.57;5.13;;;;;;;16.63;47.57;97801.72;5012642;28;20551;-70
2023/05/24 07:25:25;;;;;;;10.03;4.53;;;;;;;16.56;47.72;97809.53;4996394;28;20235;-70
2023/05/24 07:27:51;;;;;;;9.63;4.40;;;;;;;16.51;47.80;97806.56;5010009;28;20874;-70
2023/05/24 07:30:16;;;;;;;17.27;4.73;;;;;;;16.55;47.99;97815.81;5015082;28;20347;-69
2023/05/24 07:32:41;;;;;;;8.83;4.50;;;;;;;16.56;47.79;97812.16;5011333;28;20188;-68
2023/05/24 07:35:07;;;;;;;15.53;4.97;;;;;;;16.52;47.85;97820.59;5015892;28;20667;-69
2023/05/24 07:37:33;;;;;;;12.87;4.90;;;;;;;16.47;48.03;97815.84;5007175;28;20209;-69
2023/05/24 07:39:59;;;;;;;14.30;4.53;;;;;;;16.43;48.10;97823.31;5013904;28;20206;-69
2023/05/24 07:42:24;;;;;;;13.77;4.80;;;;;;;16.46;47.60;97826.63;5010747;28;20204;-70
2023/05/24 07:44:50;;;;;;;11.33;4.23;;;;;;;16.45;48.07;97830.25;5019198;28;20286;-68
2023/05/24 07:47:15;;;;;;;11.30;4.70;;;;;;;16.40;47.91;97823.66;5014951;28;20245;-69
2023/05/24 07:49:41;;;;;;;14.90;5.10;;;;;;;16.34;47.96;97834.94;5018914;28;20187;-68
2023/05/24 07:52:06;;;;;;;12.80;4.90;;;;;;;16.32;48.12;97829.00;5009256;28;20195;-69
2023/05/24 07:54:32;;;;;;;11.90;5.53;;;;;;;16.42;48.07;97828.78;5024558;28;20191;-68
2023/05/24 07:56:57;;;;;;;17.77;5.83;;;;;;;16.49;48.17;97826.28;5013402;28;20594;-68
2023/05/24 07:59:22;;;;;;;12.73;5.00;;;;;;;16.52;48.20;97826.75;5013973;28;20192;-68
2023/05/24 08:01:48;;;;;;;20.33;5.30;;;;;;;16.59;47.96;97824.22;5014496;28;20192;-68
2023/05/24 08:04:13;;;;;;;15.40;5.20;;;;;;;16.62;48.13;97831.81;5016135;28;20637;-67
2023/05/24 08:06:39;;;;;;;10.30;4.77;;;;;;;16.63;47.51;97832.63;5018085;28;20341;-68
2023/05/24 08:09:06;;;;;;;14.23;4.50;;;;;;;16.73;47.50;97834.06;5008302;28;20201;-67
2023/05/24 08:11:31;;;;;;;12.57;4.67;;;;;;;16.80;47.40;97828.03;5015956;28;20183;-69
2023/05/24 08:13:57;;;;;;;14.67;5.00;;;;;;;16.82;47.25;97836.63;5008246;28;20936;-69
2023/05/24 08:16:23;;;;;;;14.50;5.70;;;;;;;16.85;47.27;97830.97;5017836;28;20196;-69
2023/05/24 08:18:48;;;;;;;15.60;5.50;;;;;;;16.86;47.73;97835.28;5017270;28;20195;-69
2023/05/24 08:21:14;;;;;;;16.13;6.27;;;;;;;16.93;47.79;97841.50;5010009;28;20678;-68
2023/05/24 08:23:40;;;;;;;10.97;5.10;;;;;;;16.97;47.23;97845.47;5017908;28;20188;-69
2023/05/24 08:26:05;;;;;;;19.07;5.63;;;;;;;16.93;47.16;97841.50;5009457;28;20228;-70
2023/05/24 08:28:30;;;;;;;16.03;5.87;;;;;;;16.90;47.19;97844.50;5006613;28;20209;-69
2023/05/24 08:30:57;;;;;;;18.27;5.00;;;;;;;16.89;47.13;97845.50;5007801;28;20196;-69
2023/05/24 08:33:23;;;;;;;11.53;5.10;;;;;;;16.87;47.17;97847.53;5011567;28;20191;-69
2023/05/24 08:35:51;;;;;;;14.00;4.80;;;;;;;16.86;46.91;97840.56;5018530;28;20971;-69
2023/05/24 08:38:17;;;;;;;11.07;4.90;;;;;;;16.86;47.03;97851.16;5010381;28;20781;-69
2023/05/24 08:40:43;;;;;;;15.47;5.07;;;;;;;16.85;47.10;97857.47;5015262;28;20459;-70
2023/05/24 08:43:11;;;;;;;9.07;4.60;;;;;;;16.87;47.15;97850.16;5015144;28;20976;-69
2023/05/24 08:45:38;;;;;;;11.87;5.53;;;;;;;16.87;47.56;97852.81;5025972;28;20438;-69
2023/05/24 08:48:05;;;;;;;15.40;5.10;;;;;;;16.86;47.61;97854.63;5007526;28;20509;-69
2023/05/24 08:50:31;;;;;;;24.27;5.77;;;;;;;16.90;47.05;97849.78;5015675;28;20442;-70
2023/05/24 08:52:57;;;;;;;14.87;5.03;;;;;;;16.91;47.14;97856.72;5005160;28;20436;-69
2023/05/24 08:55:22;;;;;;;11.10;5.23;;;;;;;16.89;46.84;97853.44;5015767;28;20574;-69
2023/05/24 08:57:48;;;;;;;12.63;5.17;;;;;;;16.92;46.56;97863.69;5013082;28;20303;-69
2023/05/24 09:00:15;;;;;;;15.27;5.17;;;;;;;17.01;46.08;97857.34;5001014;28;20200;-69
2023/05/24 09:02:42;;;;;;;15.67;5.30;;;;;;;17.11;45.90;97856.31;5029882;28;20435;-69
2023/05/24 09:05:09;;;;;;;12.37;4.73;;;;;;;17.19;45.91;97858.88;5013929;28;20451;-70
2023/05/24 09:07:35;;;;;;;13.50;4.60;;;;;;;17.26;46.18;97858.97;5014815;28;20481;-70
2023/05/24 09:10:06;;;;;;;15.77;5.07;;;;;;;17.30;45.93;97850.50;5016666;28;20423;-69
2023/05/24 09:12:32;;;;;;;14.03;5.30;;;;;;;17.39;45.34;97845.13;5012250;28;20435;-69
2023/05/24 09:14:57;;;;;;;13.33;5.47;;;;;;;17.38;45.38;97856.72;5019632;28;20484;-70
2023/05/24 09:17:24;;;;;;;10.80;4.83;;;;;;;17.44;44.87;97845.41;5012033;28;20455;-70
2023/05/24 09:19:50;;;;;;;11.20;5.63;;;;;;;17.52;45.17;97847.16;5018377;28;20271;-69
2023/05/24 09:22:19;;;;;;;12.50;4.90;;;;;;;17.57;45.21;97840.31;5017708;28;20442;-69
2023/05/24 09:24:47;;;;;;;12.10;4.83;;;;;;;17.59;44.71;97838.28;5018744;28;20438;-69
2023/05/24 09:27:16;;;;;;;14.20;6.03;;;;;;;17.59;45.22;97838.28;5007231;28;20555;-70
2023/05/24 09:29:44;;;;;;;82.00;9.87;;;;;;;17.60;44.81;97832.00;5025010;28;20438;-69
2023/05/24 09:32:11;;;;;;;22.73;5.87;;;;;;;17.63;44.91;97844.88;5013051;28;20909;-69
2023/05/24 09:34:40;;;;;;;11.60;4.30;;;;;;;17.58;44.62;97838.50;5009744;28;21034;-69
2023/05/24 09:37:12;;;;;;;10.20;4.50;;;;;;;17.56;44.24;97848.44;5023173;28;20435;-69
2023/05/24 09:39:41;;;;;;;12.70;4.80;;;;;;;17.50;44.95;97850.78;5013377;28;20448;-69
2023/05/24 09:42:06;;;;;;;16.83;4.73;;;;;;;17.44;44.60;97853.34;5017766;28;20446;-70
2023/05/24 09:44:31;;;;;;;11.30;5.10;;;;;;;17.42;44.75;97863.28;5015610;28;20438;-70
2023/05/24 09:47:03;;;;;;;16.00;6.13;;;;;;;17.41;44.71;97857.19;5017803;28;20219;-68
2023/05/24 09:49:32;;;;;;;12.73;4.83;;;;;;;17.33;44.64;97854.59;5010556;28;20197;-71
2023/05/24 09:51:58;;;;;;;15.00;5.00;;;;;;;17.31;45.00;97868.03;5009281;28;20509;-71
2023/05/24 09:54:26;;;;;;;9.00;5.00;;;;;;;17.25;45.05;97862.63;5009482;28;20914;-69
2023/05/24 09:56:52;;;;;;;11.20;5.17;;;;;;;17.25;45.05;97860.81;5019014;28;20207;-71
2023/05/24 09:59:17;;;;;;;13.13;5.13;;;;;;;17.29;45.14;97863.91;5016215;28;20547;-69
2023/05/24 10:01:44;;;;;;;11.03;5.13;;;;;;;17.33;45.61;97866.03;5016971;28;20199;-69
2023/05/24 10:04:09;;;;;;;14.50;5.30;;;;;;;17.35;45.05;97860.53;5015983;28;20658;-72
2023/05/24 10:06:38;;;;;;;13.30;5.30;;;;;;;17.39;45.11;97866.34;5008228;28;20494;-72
2023/05/24 10:09:05;;;;;;;16.77;5.00;;;;;;;17.44;45.44;97858.66;5009080;28;20299;-70
2023/05/24 10:11:35;;;;;;;10.73;5.20;;;;;;;17.46;45.32;97856.66;5010199;28;20428;-70
2023/05/24 10:14:03;;;;;;;15.43;5.37;;;;;;;17.46;44.98;97860.09;5008043;28;20443;-70
2023/05/24 10:16:28;;;;;;;13.90;5.40;;;;;;;17.46;44.89;97848.69;5011662;28;20429;-71
2023/05/24 10:18:55;;;;;;;14.40;5.10;;;;;;;17.43;44.88;97860.47;5010398;28;20522;-70
2023/05/24 10:21:23;;;;;;;10.67;4.93;;;;;;;17.36;44.64;97851.59;5014802;28;20192;-68
2023/05/24 10:23:50;;;;;;;12.33;4.93;;;;;;;17.32;44.56;97855.63;5013686;28;20569;-70
2023/05/24 10:26:16;;;;;;;11.57;4.33;;;;;;;17.26;44.55;97856.31;4970202;28;21140;-70
2023/05/24 10:28:44;;;;;;;14.10;4.83;;;;;;;17.14;44.99;97851.47;5010364;28;20463;-69
2023/05/24 10:31:31;;;;;;;17.13;5.60;;;;;;;17.06;45.04;97859.47;5012142;28;20189;-70
2023/05/24 10:33:58;;;;;;;15.77;6.03;;;;;;;17.02;45.16;97859.00;5030607;28;20435;-69
2023/05/24 10:36:25;;;;;;;11.20;4.97;;;;;;;16.99;44.95;97856.72;5008744;28;20514;-70
2023/05/24 10:38:51;;;;;;;10.50;4.10;;;;;;;16.96;45.29;97854.41;5010546;28;20431;-68
2023/05/24 10:41:17;;;;;;;9.40;4.83;;;;;;;16.91;45.42;97861.22;5009678;28;20439;-70
2023/05/24 10:43:45;;;;;;;14.07;5.60;;;;;;;16.91;45.60;97859.38;4992469;28;20431;-69
2023/05/24 10:46:13;;;;;;;13.80;5.30;;;;;;;16.82;45.44;97855.16;5013098;28;20446;-68
2023/05/24 10:48:40;;;;;;;17.97;5.50;;;;;;;16.76;44.89;97858.53;5044766;28;20518;-71
2023/05/24 10:51:34;;;;;;;15.23;5.17;;;;;;;16.74;44.83;97851.56;5016164;28;20438;-70
2023/05/24 10:54:18;;;;;;;15.43;5.70;;;;;;;16.79;44.80;97853.69;5025537;28;20435;-69
2023/05/24 10:56:49;;;;;;;14.47;5.10;;;;;;;16.82;45.05;97849.88;5001625;28;20458;-69
2023/05/24 10:59:38;;;;;;;13.43;5.00;;;;;;;16.84;45.05;97851.31;5016322;28;20439;-68
2023/05/24 11:02:08;;;;;;;13.63;5.33;;;;;;;16.91;44.96;97845.34;5042601;28;20459;-70
2023/05/24 11:04:39;;;;;;;15.60;5.13;;;;;;;16.96;45.17;97849.13;5023000;28;20427;-71
2023/05/24 11:07:08;;;;;;;9.17;4.70;;;;;;;16.99;45.33;97847.94;5017829;28;20473;-69
2023/05/24 11:09:35;;;;;;;21.57;5.60;;;;;;;17.03;45.01;97846.59;5013325;28;20475;-70
2023/05/24 11:12:03;;;;;;;10.87;4.80;;;;;;;17.08;44.65;97846.06;5015580;28;20522;-71
2023/05/24 11:14:30;;;;;;;22.70;6.40;;;;;;;17.11;43.33;97846.50;5010054;28;20443;-69
2023/05/24 11:16:57;;;;;;;14.73;5.17;;;;;;;17.15;43.04;97844.31;5022862;28;20446;-70
2023/05/24 11:19:28;;;;;;;17.10;4.77;;;;;;;17.22;42.56;97842.63;5009376;28;20439;-69
2023/05/24 11:21:57;;;;;;;12.60;4.63;;;;;;;17.33;41.90;97834.25;5007235;28;20535;-69
2023/05/24 11:24:24;;;;;;;12.20;5.00;;;;;;;17.45;41.83;97828.50;5021747;28;21119;-72
2023/05/24 11:26:50;;;;;;;10.93;4.80;;;;;;;17.58;42.20;97835.84;5015483;28;20901;-70